OEKDC LOWS-LOLH
Flight info
| Callsign | OEKDC |
|---|---|
| Flight time | 1h 49m |
| Altitude | 3500 |
| Route | MP SK |
| Aircraft | DA40/L-V/N |
Departure
| Time | 2026-05-05 18:07 |
|---|---|
| Airport | Salzburg Airport (LOWS) |
Arrival
| Time | 2026-05-05 19:56 |
|---|---|
| Airport | Hofkirchen Airfield (LOLH) |
| Time | Latitude | Longitude | Altitude | Speed | Heading |
|---|---|---|---|---|---|
| 2026-05-05 18:00 | 47.79516 | 12.99791 | 1414 ft | 0 kts | 338° |
| 2026-05-05 18:03 | 47.79518 | 12.99790 | 1414 ft | 1 kts | 349° |
| 2026-05-05 18:03 | 47.79545 | 12.99815 | 1414 ft | 6 kts | 61° |
| 2026-05-05 18:03 | 47.79542 | 12.99850 | 1414 ft | 5 kts | 140° |
| 2026-05-05 18:03 | 47.79558 | 12.99929 | 1414 ft | 11 kts | 69° |
| 2026-05-05 18:04 | 47.79547 | 12.99999 | 1414 ft | 7 kts | 162° |
| 2026-05-05 18:04 | 47.79474 | 13.00038 | 1414 ft | 12 kts | 156° |
| 2026-05-05 18:04 | 47.79402 | 13.00083 | 1414 ft | 9 kts | 159° |
| 2026-05-05 18:04 | 47.79331 | 13.00128 | 1414 ft | 13 kts | 158° |
| 2026-05-05 18:05 | 47.79249 | 13.00178 | 1414 ft | 10 kts | 158° |
| 2026-05-05 18:05 | 47.79183 | 13.00223 | 1414 ft | 12 kts | 156° |
| 2026-05-05 18:05 | 47.79129 | 13.00273 | 1414 ft | 8 kts | 116° |
| 2026-05-05 18:05 | 47.79119 | 13.00368 | 1414 ft | 11 kts | 97° |
| 2026-05-05 18:06 | 47.79112 | 13.00499 | 1412 ft | 10 kts | 72° |
| 2026-05-05 18:06 | 47.79120 | 13.00516 | 1412 ft | 5 kts | 33° |
| 2026-05-05 18:06 | 47.79357 | 13.00378 | 1416 ft | 58 kts | 336° |
| 2026-05-05 18:06 | 47.79796 | 13.00076 | 1538 ft | 72 kts | 335° |
| 2026-05-05 18:07 | 47.80249 | 12.99781 | 1740 ft | 71 kts | 339° |
| 2026-05-05 18:07 | 47.80560 | 12.99630 | 1883 ft | 71 kts | 348° |
| 2026-05-05 18:07 | 47.81182 | 13.00098 | 2076 ft | 84 kts | 39° |
| 2026-05-05 18:07 | 47.81649 | 13.00672 | 2263 ft | 88 kts | 26° |
| 2026-05-05 18:08 | 47.81980 | 13.01042 | 2339 ft | 92 kts | 27° |
| 2026-05-05 18:08 | 47.82509 | 13.01653 | 2419 ft | 102 kts | 34° |
| 2026-05-05 18:08 | 47.83028 | 13.02409 | 2479 ft | 109 kts | 44° |
| 2026-05-05 18:08 | 47.83465 | 13.03357 | 2584 ft | 112 kts | 49° |
| 2026-05-05 18:09 | 47.83925 | 13.04356 | 2630 ft | 119 kts | 51° |
| 2026-05-05 18:09 | 47.84258 | 13.05531 | 2733 ft | 128 kts | 69° |
| 2026-05-05 18:09 | 47.84505 | 13.06797 | 2806 ft | 130 kts | 67° |
| 2026-05-05 18:09 | 47.84777 | 13.08120 | 2859 ft | 134 kts | 68° |
| 2026-05-05 18:10 | 47.85061 | 13.09447 | 3010 ft | 132 kts | 66° |
| 2026-05-05 18:10 | 47.85356 | 13.10723 | 3123 ft | 132 kts | 65° |
| 2026-05-05 18:10 | 47.85636 | 13.12051 | 3199 ft | 135 kts | 69° |
| 2026-05-05 18:10 | 47.85863 | 13.13401 | 3343 ft | 134 kts | 72° |
| 2026-05-05 18:11 | 47.86082 | 13.14752 | 3476 ft | 135 kts | 72° |
| 2026-05-05 18:11 | 47.86320 | 13.16098 | 3491 ft | 136 kts | 71° |
| 2026-05-05 18:11 | 47.86382 | 13.17516 | 3472 ft | 139 kts | 95° |
| 2026-05-05 18:11 | 47.86073 | 13.18874 | 3502 ft | 139 kts | 116° |
| 2026-05-05 18:12 | 47.85695 | 13.20173 | 3574 ft | 134 kts | 109° |
| 2026-05-05 18:12 | 47.85400 | 13.21457 | 3657 ft | 128 kts | 104° |
| 2026-05-05 18:12 | 47.85129 | 13.22760 | 3586 ft | 135 kts | 108° |
| 2026-05-05 18:12 | 47.84808 | 13.24064 | 3590 ft | 132 kts | 110° |
| 2026-05-05 18:13 | 47.84519 | 13.25363 | 3553 ft | 133 kts | 104° |
| 2026-05-05 18:13 | 47.84381 | 13.26718 | 3523 ft | 133 kts | 91° |
| 2026-05-05 18:13 | 47.84383 | 13.28093 | 3449 ft | 134 kts | 84° |
| 2026-05-05 18:13 | 47.84462 | 13.29444 | 3432 ft | 129 kts | 81° |
| 2026-05-05 18:14 | 47.84572 | 13.30792 | 3348 ft | 135 kts | 84° |
| 2026-05-05 18:14 | 47.84501 | 13.32185 | 3319 ft | 136 kts | 99° |
| 2026-05-05 18:14 | 47.84343 | 13.33535 | 3373 ft | 131 kts | 100° |
| 2026-05-05 18:14 | 47.84154 | 13.34866 | 3352 ft | 132 kts | 100° |
| 2026-05-05 18:15 | 47.83944 | 13.36187 | 3377 ft | 131 kts | 104° |
| 2026-05-05 18:15 | 47.83641 | 13.37478 | 3383 ft | 132 kts | 113° |
| 2026-05-05 18:15 | 47.83407 | 13.38789 | 3376 ft | 131 kts | 93° |
| 2026-05-05 18:15 | 47.83444 | 13.40142 | 3364 ft | 130 kts | 78° |
| 2026-05-05 18:16 | 47.83651 | 13.41448 | 3400 ft | 129 kts | 72° |
| 2026-05-05 18:16 | 47.83841 | 13.42769 | 3351 ft | 133 kts | 75° |
| 2026-05-05 18:16 | 47.84003 | 13.44125 | 3374 ft | 132 kts | 77° |
| 2026-05-05 18:16 | 47.84190 | 13.45458 | 3350 ft | 131 kts | 70° |
| 2026-05-05 18:17 | 47.84447 | 13.46749 | 3331 ft | 130 kts | 69° |
| 2026-05-05 18:17 | 47.84663 | 13.48071 | 3251 ft | 132 kts | 75° |
| 2026-05-05 18:17 | 47.84831 | 13.49412 | 3211 ft | 132 kts | 74° |
| 2026-05-05 18:17 | 47.85208 | 13.50606 | 3159 ft | 128 kts | 45° |
| 2026-05-05 18:18 | 47.85846 | 13.51439 | 3227 ft | 113 kts | 30° |
| 2026-05-05 18:18 | 47.86471 | 13.52134 | 3231 ft | 112 kts | 31° |
| 2026-05-05 18:18 | 47.87110 | 13.52845 | 3202 ft | 118 kts | 31° |
| 2026-05-05 18:18 | 47.87775 | 13.53499 | 3247 ft | 114 kts | 25° |
| 2026-05-05 18:19 | 47.88456 | 13.54122 | 3270 ft | 113 kts | 28° |
| 2026-05-05 18:19 | 47.89079 | 13.54821 | 3321 ft | 113 kts | 31° |
| 2026-05-05 18:19 | 47.89681 | 13.55575 | 3372 ft | 113 kts | 37° |
| 2026-05-05 18:19 | 47.90242 | 13.56432 | 3374 ft | 116 kts | 40° |
| 2026-05-05 18:20 | 47.90806 | 13.57284 | 3404 ft | 116 kts | 39° |
| 2026-05-05 18:20 | 47.91385 | 13.58135 | 3523 ft | 115 kts | 39° |
| 2026-05-05 18:20 | 47.91956 | 13.58945 | 3661 ft | 114 kts | 37° |
| 2026-05-05 18:20 | 47.92537 | 13.59780 | 3708 ft | 115 kts | 44° |
| 2026-05-05 18:21 | 47.93020 | 13.60764 | 3627 ft | 124 kts | 50° |
| 2026-05-05 18:21 | 47.93481 | 13.61834 | 3662 ft | 121 kts | 55° |
| 2026-05-05 18:21 | 47.93892 | 13.63003 | 3523 ft | 131 kts | 59° |
| 2026-05-05 18:21 | 47.94273 | 13.64232 | 3506 ft | 133 kts | 60° |
| 2026-05-05 18:22 | 47.94670 | 13.65464 | 3500 ft | 131 kts | 59° |
| 2026-05-05 18:22 | 47.95062 | 13.66676 | 3498 ft | 130 kts | 59° |
| 2026-05-05 18:22 | 47.95450 | 13.67893 | 3505 ft | 130 kts | 59° |
| 2026-05-05 18:22 | 47.95849 | 13.69101 | 3493 ft | 128 kts | 60° |
| 2026-05-05 18:23 | 47.96257 | 13.70273 | 3503 ft | 127 kts | 60° |
| 2026-05-05 18:23 | 47.96663 | 13.71438 | 3497 ft | 127 kts | 59° |
| 2026-05-05 18:23 | 47.97073 | 13.72615 | 3496 ft | 127 kts | 59° |
| 2026-05-05 18:23 | 47.97474 | 13.73763 | 3491 ft | 125 kts | 59° |
| 2026-05-05 18:24 | 47.97870 | 13.74923 | 3493 ft | 126 kts | 60° |
| 2026-05-05 18:24 | 47.98275 | 13.76090 | 3486 ft | 126 kts | 59° |
| 2026-05-05 18:24 | 47.98669 | 13.77244 | 3492 ft | 124 kts | 59° |
| 2026-05-05 18:24 | 47.99057 | 13.78383 | 3485 ft | 123 kts | 59° |
| 2026-05-05 18:25 | 47.99450 | 13.79521 | 3480 ft | 124 kts | 59° |
| 2026-05-05 18:25 | 47.99709 | 13.80278 | 3481 ft | 124 kts | 60° |
| 2026-05-05 18:25 | 48.00242 | 13.81807 | 3487 ft | 125 kts | 60° |
| 2026-05-05 18:25 | 48.00644 | 13.82962 | 3487 ft | 126 kts | 59° |
| 2026-05-05 18:26 | 48.01049 | 13.84133 | 3484 ft | 127 kts | 60° |
| 2026-05-05 18:26 | 48.01459 | 13.85296 | 3493 ft | 126 kts | 60° |
| 2026-05-05 18:26 | 48.01868 | 13.86459 | 3487 ft | 127 kts | 60° |
| 2026-05-05 18:26 | 48.02237 | 13.87671 | 3486 ft | 129 kts | 69° |
| 2026-05-05 18:27 | 48.02519 | 13.88946 | 3489 ft | 129 kts | 70° |
| 2026-05-05 18:27 | 48.02797 | 13.90220 | 3477 ft | 129 kts | 70° |
| 2026-05-05 18:27 | 48.03078 | 13.91482 | 3474 ft | 128 kts | 70° |
| 2026-05-05 18:27 | 48.03357 | 13.92755 | 3481 ft | 130 kts | 70° |
| 2026-05-05 18:28 | 48.03847 | 13.95338 | 3490 ft | 129 kts | 70° |
| 2026-05-05 18:28 | 48.04123 | 13.96619 | 3486 ft | 130 kts | 70° |
| 2026-05-05 18:28 | 48.04409 | 13.97910 | 3482 ft | 131 kts | 70° |
| 2026-05-05 18:29 | 48.04689 | 13.99199 | 3480 ft | 130 kts | 70° |
| 2026-05-05 18:29 | 48.04967 | 14.00487 | 3482 ft | 130 kts | 69° |
| 2026-05-05 18:29 | 48.05233 | 14.01771 | 3472 ft | 128 kts | 69° |
| 2026-05-05 18:29 | 48.05498 | 14.03047 | 3476 ft | 128 kts | 69° |
| 2026-05-05 18:30 | 48.05757 | 14.04313 | 3475 ft | 127 kts | 70° |
| 2026-05-05 18:30 | 48.06014 | 14.05575 | 3473 ft | 127 kts | 70° |
| 2026-05-05 18:30 | 48.06280 | 14.06842 | 3463 ft | 128 kts | 70° |
| 2026-05-05 18:30 | 48.06538 | 14.08107 | 3474 ft | 127 kts | 70° |
| 2026-05-05 18:31 | 48.06796 | 14.09369 | 3470 ft | 127 kts | 70° |
| 2026-05-05 18:31 | 48.07059 | 14.10625 | 3468 ft | 127 kts | 69° |
| 2026-05-05 18:31 | 48.07322 | 14.11888 | 3469 ft | 128 kts | 69° |
| 2026-05-05 18:31 | 48.07580 | 14.13151 | 3527 ft | 124 kts | 69° |
| 2026-05-05 18:32 | 48.07833 | 14.14382 | 3540 ft | 124 kts | 69° |
| 2026-05-05 18:32 | 48.08082 | 14.15620 | 3544 ft | 125 kts | 70° |
| 2026-05-05 18:32 | 48.08343 | 14.16871 | 3543 ft | 126 kts | 69° |
| 2026-05-05 18:32 | 48.08602 | 14.18134 | 3545 ft | 128 kts | 70° |
| 2026-05-05 18:33 | 48.08870 | 14.19384 | 3556 ft | 128 kts | 70° |
| 2026-05-05 18:33 | 48.09161 | 14.20659 | 3554 ft | 131 kts | 69° |
| 2026-05-05 18:33 | 48.09444 | 14.21944 | 3549 ft | 131 kts | 71° |
| 2026-05-05 18:33 | 48.09643 | 14.23273 | 3530 ft | 132 kts | 81° |
| 2026-05-05 18:34 | 48.09753 | 14.24675 | 3474 ft | 136 kts | 83° |
| 2026-05-05 18:34 | 48.09858 | 14.26103 | 3325 ft | 140 kts | 82° |
| 2026-05-05 18:34 | 48.09978 | 14.27547 | 3176 ft | 139 kts | 82° |
| 2026-05-05 18:34 | 48.10099 | 14.28968 | 3041 ft | 137 kts | 82° |
| 2026-05-05 18:35 | 48.10204 | 14.30397 | 2793 ft | 140 kts | 84° |
| 2026-05-05 18:35 | 48.10271 | 14.31751 | 2569 ft | 122 kts | 86° |
| 2026-05-05 18:35 | 48.10318 | 14.32951 | 2361 ft | 111 kts | 88° |
| 2026-05-05 18:35 | 48.10359 | 14.34037 | 2210 ft | 100 kts | 86° |
| 2026-05-05 18:36 | 48.10424 | 14.35066 | 2113 ft | 99 kts | 84° |
| 2026-05-05 18:36 | 48.10512 | 14.36073 | 2024 ft | 97 kts | 77° |
| 2026-05-05 18:36 | 48.10775 | 14.36987 | 1921 ft | 97 kts | 53° |
| 2026-05-05 18:36 | 48.11379 | 14.37349 | 1801 ft | 98 kts | 355° |
| 2026-05-05 18:37 | 48.12041 | 14.37282 | 1686 ft | 90 kts | 354° |
| 2026-05-05 18:37 | 48.12636 | 14.37283 | 1587 ft | 78 kts | 353° |
| 2026-05-05 18:37 | 48.13182 | 14.37228 | 1611 ft | 85 kts | 348° |
| 2026-05-05 18:37 | 48.13754 | 14.36972 | 1662 ft | 86 kts | 318° |
| 2026-05-05 18:38 | 48.14061 | 14.36299 | 1604 ft | 74 kts | 283° |
| 2026-05-05 18:38 | 48.14111 | 14.35492 | 1479 ft | 83 kts | 268° |
| 2026-05-05 18:38 | 48.14038 | 14.34702 | 1344 ft | 72 kts | 259° |
| 2026-05-05 18:38 | 48.13960 | 14.34015 | 1215 ft | 63 kts | 261° |
| 2026-05-05 18:39 | 48.13892 | 14.33422 | 1186 ft | 61 kts | 259° |
| 2026-05-05 18:39 | 48.13837 | 14.32757 | 1421 ft | 64 kts | 262° |
| 2026-05-05 18:39 | 48.13766 | 14.32045 | 1585 ft | 71 kts | 262° |
| 2026-05-05 18:39 | 48.13738 | 14.31298 | 1764 ft | 74 kts | 266° |
| 2026-05-05 18:40 | 48.13705 | 14.30511 | 1950 ft | 78 kts | 261° |
| 2026-05-05 18:40 | 48.13562 | 14.29732 | 2110 ft | 83 kts | 225° |
| 2026-05-05 18:40 | 48.13011 | 14.29648 | 2273 ft | 87 kts | 173° |
| 2026-05-05 18:40 | 48.12342 | 14.29726 | 2335 ft | 105 kts | 176° |
| 2026-05-05 18:41 | 48.11612 | 14.29825 | 2358 ft | 103 kts | 178° |
| 2026-05-05 18:41 | 48.10918 | 14.29873 | 2404 ft | 100 kts | 183° |
| 2026-05-05 18:41 | 48.10226 | 14.29978 | 2359 ft | 107 kts | 143° |
| 2026-05-05 18:41 | 48.10075 | 14.30988 | 2372 ft | 107 kts | 77° |
| 2026-05-05 18:42 | 48.10243 | 14.32097 | 2275 ft | 111 kts | 77° |
| 2026-05-05 18:42 | 48.10426 | 14.33249 | 2155 ft | 114 kts | 77° |
| 2026-05-05 18:42 | 48.10621 | 14.34404 | 2069 ft | 113 kts | 78° |
| 2026-05-05 18:42 | 48.10817 | 14.35538 | 1995 ft | 111 kts | 74° |
| 2026-05-05 18:43 | 48.11053 | 14.36637 | 1911 ft | 111 kts | 74° |
| 2026-05-05 18:43 | 48.11347 | 14.37706 | 1807 ft | 112 kts | 42° |
| 2026-05-05 18:43 | 48.12039 | 14.37979 | 1796 ft | 109 kts | 356° |
| 2026-05-05 18:43 | 48.12785 | 14.37890 | 1745 ft | 103 kts | 355° |
| 2026-05-05 18:44 | 48.13444 | 14.37778 | 1723 ft | 94 kts | 346° |
| 2026-05-05 18:44 | 48.13968 | 14.37295 | 1660 ft | 87 kts | 303° |
| 2026-05-05 18:44 | 48.14158 | 14.36600 | 1538 ft | 64 kts | 279° |
| 2026-05-05 18:44 | 48.14170 | 14.35870 | 1454 ft | 74 kts | 259° |
| 2026-05-05 18:45 | 48.14083 | 14.35110 | 1360 ft | 74 kts | 260° |
| 2026-05-05 18:45 | 48.13998 | 14.34377 | 1269 ft | 70 kts | 261° |
| 2026-05-05 18:45 | 48.13924 | 14.33698 | 1186 ft | 61 kts | 261° |
| 2026-05-05 18:45 | 48.13853 | 14.33081 | 1256 ft | 68 kts | 262° |
| 2026-05-05 18:46 | 48.13798 | 14.32363 | 1487 ft | 68 kts | 265° |
| 2026-05-05 18:46 | 48.13766 | 14.31663 | 1693 ft | 71 kts | 266° |
| 2026-05-05 18:46 | 48.13748 | 14.30888 | 1851 ft | 78 kts | 269° |
| 2026-05-05 18:46 | 48.13728 | 14.30033 | 1966 ft | 92 kts | 266° |
| 2026-05-05 18:47 | 48.13391 | 14.29210 | 2130 ft | 99 kts | 200° |
| 2026-05-05 18:47 | 48.12666 | 14.29116 | 2189 ft | 112 kts | 179° |
| 2026-05-05 18:47 | 48.11858 | 14.29151 | 2252 ft | 120 kts | 178° |
| 2026-05-05 18:47 | 48.10990 | 14.29198 | 2234 ft | 129 kts | 180° |
| 2026-05-05 18:48 | 48.10153 | 14.29640 | 2235 ft | 134 kts | 133° |
| 2026-05-05 18:48 | 48.09975 | 14.30948 | 2268 ft | 135 kts | 83° |
| 2026-05-05 18:48 | 48.10122 | 14.32337 | 2205 ft | 137 kts | 80° |
| 2026-05-05 18:48 | 48.10299 | 14.33727 | 2128 ft | 135 kts | 80° |
| 2026-05-05 18:49 | 48.10465 | 14.35102 | 2066 ft | 132 kts | 80° |
| 2026-05-05 18:49 | 48.10663 | 14.36426 | 1948 ft | 129 kts | 77° |
| 2026-05-05 18:49 | 48.11099 | 14.37550 | 1823 ft | 130 kts | 34° |
| 2026-05-05 18:49 | 48.11958 | 14.37811 | 1757 ft | 125 kts | 355° |
| 2026-05-05 18:50 | 48.12771 | 14.37665 | 1745 ft | 106 kts | 349° |
| 2026-05-05 18:50 | 48.13430 | 14.37441 | 1655 ft | 97 kts | 338° |
| 2026-05-05 18:50 | 48.13955 | 14.36923 | 1633 ft | 88 kts | 302° |
| 2026-05-05 18:50 | 48.14178 | 14.36122 | 1498 ft | 81 kts | 270° |
| 2026-05-05 18:51 | 48.14105 | 14.35335 | 1453 ft | 70 kts | 263° |
| 2026-05-05 18:51 | 48.14028 | 14.34602 | 1344 ft | 72 kts | 261° |
| 2026-05-05 18:51 | 48.13943 | 14.33878 | 1192 ft | 66 kts | 261° |
| 2026-05-05 18:51 | 48.13876 | 14.33262 | 1195 ft | 65 kts | 260° |
| 2026-05-05 18:52 | 48.13788 | 14.32578 | 1420 ft | 70 kts | 260° |
| 2026-05-05 18:52 | 48.13722 | 14.31813 | 1586 ft | 75 kts | 265° |
| 2026-05-05 18:52 | 48.13683 | 14.31015 | 1757 ft | 79 kts | 263° |
| 2026-05-05 18:52 | 48.13647 | 14.30162 | 1915 ft | 86 kts | 264° |
| 2026-05-05 18:53 | 48.13375 | 14.29338 | 1949 ft | 106 kts | 192° |
| 2026-05-05 18:53 | 48.12628 | 14.29320 | 2054 ft | 113 kts | 173° |
| 2026-05-05 18:53 | 48.11801 | 14.29421 | 2114 ft | 120 kts | 173° |
| 2026-05-05 18:53 | 48.10960 | 14.29675 | 2074 ft | 128 kts | 152° |
| 2026-05-05 18:54 | 48.10426 | 14.30674 | 2136 ft | 129 kts | 106° |
| 2026-05-05 18:54 | 48.10437 | 14.32050 | 2006 ft | 125 kts | 85° |
| 2026-05-05 18:54 | 48.10522 | 14.33206 | 1920 ft | 104 kts | 84° |
| 2026-05-05 18:54 | 48.10637 | 14.34241 | 1851 ft | 100 kts | 81° |
| 2026-05-05 18:55 | 48.10787 | 14.35286 | 1850 ft | 103 kts | 78° |
| 2026-05-05 18:55 | 48.10968 | 14.36326 | 1886 ft | 104 kts | 72° |
| 2026-05-05 18:55 | 48.11511 | 14.36996 | 1909 ft | 106 kts | 12° |
| 2026-05-05 18:55 | 48.12272 | 14.36998 | 1841 ft | 114 kts | 354° |
| 2026-05-05 18:56 | 48.13052 | 14.36730 | 1770 ft | 118 kts | 340° |
| 2026-05-05 18:56 | 48.13747 | 14.36297 | 1626 ft | 95 kts | 320° |
| 2026-05-05 18:56 | 48.13995 | 14.35538 | 1525 ft | 83 kts | 282° |
| 2026-05-05 18:56 | 48.14034 | 14.34719 | 1330 ft | 70 kts | 261° |
| 2026-05-05 18:57 | 48.13962 | 14.34047 | 1223 ft | 65 kts | 258° |
| 2026-05-05 18:57 | 48.13893 | 14.33431 | 1186 ft | 53 kts | 261° |
| 2026-05-05 18:57 | 48.13814 | 14.32765 | 1320 ft | 72 kts | 262° |
| 2026-05-05 18:57 | 48.13773 | 14.31998 | 1486 ft | 77 kts | 264° |
| 2026-05-05 18:58 | 48.13747 | 14.31466 | 1637 ft | 76 kts | 262° |
| 2026-05-05 18:58 | 48.13678 | 14.30667 | 1837 ft | 78 kts | 260° |
| 2026-05-05 18:58 | 48.13412 | 14.29984 | 1996 ft | 82 kts | 198° |
| 2026-05-05 18:58 | 48.12859 | 14.30221 | 2122 ft | 94 kts | 152° |
| 2026-05-05 18:59 | 48.12192 | 14.30499 | 2243 ft | 102 kts | 173° |
| 2026-05-05 18:59 | 48.11445 | 14.30603 | 2326 ft | 112 kts | 174° |
| 2026-05-05 18:59 | 48.10775 | 14.31131 | 2426 ft | 110 kts | 125° |
| 2026-05-05 18:59 | 48.10647 | 14.32272 | 2346 ft | 118 kts | 84° |
| 2026-05-05 19:00 | 48.10745 | 14.33515 | 2262 ft | 121 kts | 85° |
| 2026-05-05 19:00 | 48.10815 | 14.34742 | 2233 ft | 119 kts | 87° |
| 2026-05-05 19:00 | 48.10862 | 14.35982 | 2202 ft | 116 kts | 87° |
| 2026-05-05 19:00 | 48.10952 | 14.37222 | 2049 ft | 123 kts | 68° |
| 2026-05-05 19:01 | 48.11297 | 14.38245 | 2125 ft | 115 kts | 65° |
| 2026-05-05 19:01 | 48.11721 | 14.39194 | 2093 ft | 108 kts | 40° |
| 2026-05-05 19:01 | 48.12417 | 14.39438 | 1937 ft | 101 kts | 354° |
| 2026-05-05 19:01 | 48.13121 | 14.39226 | 1720 ft | 102 kts | 343° |
| 2026-05-05 19:02 | 48.13762 | 14.38953 | 1696 ft | 91 kts | 338° |
| 2026-05-05 19:02 | 48.14337 | 14.38653 | 1684 ft | 89 kts | 333° |
| 2026-05-05 19:02 | 48.14577 | 14.37907 | 1628 ft | 84 kts | 249° |
| 2026-05-05 19:02 | 48.14261 | 14.37268 | 1520 ft | 70 kts | 243° |
| 2026-05-05 19:03 | 48.14131 | 14.36558 | 1488 ft | 71 kts | 263° |
| 2026-05-05 19:03 | 48.14062 | 14.35794 | 1403 ft | 75 kts | 276° |
| 2026-05-05 19:03 | 48.14048 | 14.35013 | 1369 ft | 76 kts | 269° |
| 2026-05-05 19:03 | 48.13974 | 14.34199 | 1273 ft | 83 kts | 264° |
| 2026-05-05 19:04 | 48.13894 | 14.33462 | 1190 ft | 59 kts | 268° |
| 2026-05-05 19:04 | 48.13807 | 14.32764 | 1346 ft | 71 kts | 262° |
| 2026-05-05 19:04 | 48.13694 | 14.32015 | 1534 ft | 78 kts | 262° |
| 2026-05-05 19:04 | 48.13587 | 14.31222 | 1752 ft | 76 kts | 257° |
| 2026-05-05 19:05 | 48.13375 | 14.30502 | 1961 ft | 77 kts | 223° |
| 2026-05-05 19:05 | 48.12828 | 14.30279 | 2064 ft | 94 kts | 174° |
| 2026-05-05 19:05 | 48.12134 | 14.30412 | 2155 ft | 106 kts | 171° |
| 2026-05-05 19:05 | 48.11376 | 14.30606 | 2241 ft | 114 kts | 171° |
| 2026-05-05 19:06 | 48.10631 | 14.31048 | 2262 ft | 118 kts | 136° |
| 2026-05-05 19:06 | 48.10346 | 14.32213 | 2130 ft | 126 kts | 90° |
| 2026-05-05 19:06 | 48.10439 | 14.33494 | 2101 ft | 121 kts | 84° |
| 2026-05-05 19:06 | 48.10557 | 14.34728 | 2077 ft | 120 kts | 81° |
| 2026-05-05 19:07 | 48.10763 | 14.35913 | 2037 ft | 119 kts | 74° |
| 2026-05-05 19:07 | 48.11019 | 14.37028 | 1970 ft | 104 kts | 70° |
| 2026-05-05 19:07 | 48.11263 | 14.37964 | 1909 ft | 94 kts | 71° |
| 2026-05-05 19:07 | 48.11504 | 14.38870 | 1918 ft | 92 kts | 68° |
| 2026-05-05 19:08 | 48.11881 | 14.39612 | 1931 ft | 86 kts | 38° |
| 2026-05-05 19:08 | 48.12433 | 14.39957 | 1950 ft | 84 kts | 5° |
| 2026-05-05 19:08 | 48.13003 | 14.39829 | 1958 ft | 84 kts | 340° |
| 2026-05-05 19:08 | 48.13561 | 14.39572 | 1953 ft | 83 kts | 346° |
| 2026-05-05 19:09 | 48.14146 | 14.39398 | 1969 ft | 86 kts | 343° |
| 2026-05-05 19:09 | 48.14597 | 14.38864 | 1874 ft | 89 kts | 281° |
| 2026-05-05 19:09 | 48.14477 | 14.37945 | 1715 ft | 88 kts | 255° |
| 2026-05-05 19:09 | 48.14353 | 14.37100 | 1636 ft | 80 kts | 261° |
| 2026-05-05 19:10 | 48.14227 | 14.36307 | 1517 ft | 75 kts | 257° |
| 2026-05-05 19:10 | 48.14127 | 14.35563 | 1414 ft | 74 kts | 262° |
| 2026-05-05 19:10 | 48.14036 | 14.34793 | 1363 ft | 73 kts | 266° |
| 2026-05-05 19:10 | 48.13958 | 14.34028 | 1231 ft | 74 kts | 265° |
| 2026-05-05 19:11 | 48.13883 | 14.33346 | 1183 ft | 62 kts | 265° |
| 2026-05-05 19:11 | 48.13816 | 14.32650 | 1349 ft | 71 kts | 266° |
| 2026-05-05 19:11 | 48.13736 | 14.31874 | 1514 ft | 78 kts | 261° |
| 2026-05-05 19:11 | 48.13646 | 14.31062 | 1700 ft | 82 kts | 261° |
| 2026-05-05 19:12 | 48.13498 | 14.30227 | 1900 ft | 82 kts | 233° |
| 2026-05-05 19:12 | 48.12944 | 14.30103 | 2034 ft | 96 kts | 161° |
| 2026-05-05 19:12 | 48.12242 | 14.30272 | 2103 ft | 111 kts | 182° |
| 2026-05-05 19:12 | 48.11420 | 14.30240 | 2089 ft | 124 kts | 181° |
| 2026-05-05 19:13 | 48.10584 | 14.30551 | 2149 ft | 126 kts | 148° |
| 2026-05-05 19:13 | 48.10081 | 14.31650 | 2085 ft | 136 kts | 107° |
| 2026-05-05 19:13 | 48.10081 | 14.33028 | 2166 ft | 135 kts | 83° |
| 2026-05-05 19:13 | 48.10263 | 14.34406 | 2079 ft | 124 kts | 74° |
| 2026-05-05 19:14 | 48.10515 | 14.35490 | 2012 ft | 99 kts | 72° |
| 2026-05-05 19:14 | 48.10756 | 14.36410 | 1887 ft | 92 kts | 68° |
| 2026-05-05 19:14 | 48.11024 | 14.37256 | 1840 ft | 87 kts | 66° |
| 2026-05-05 19:14 | 48.11244 | 14.38110 | 1864 ft | 90 kts | 69° |
| 2026-05-05 19:15 | 48.11548 | 14.38942 | 1902 ft | 94 kts | 48° |
| 2026-05-05 19:15 | 48.12077 | 14.39563 | 1903 ft | 97 kts | 22° |
| 2026-05-05 19:15 | 48.12717 | 14.39720 | 1892 ft | 92 kts | 343° |
| 2026-05-05 19:15 | 48.13311 | 14.39371 | 1883 ft | 91 kts | 330° |
| 2026-05-05 19:16 | 48.13899 | 14.38984 | 1835 ft | 91 kts | 333° |
| 2026-05-05 19:16 | 48.14154 | 14.38355 | 1821 ft | 74 kts | 262° |
| 2026-05-05 19:16 | 48.14044 | 14.37566 | 1738 ft | 78 kts | 267° |
| 2026-05-05 19:16 | 48.14037 | 14.36780 | 1638 ft | 77 kts | 266° |
| 2026-05-05 19:17 | 48.13996 | 14.35971 | 1825 ft | 79 kts | 260° |
| 2026-05-05 19:17 | 48.13885 | 14.35154 | 2036 ft | 80 kts | 258° |
| 2026-05-05 19:17 | 48.13861 | 14.34318 | 2250 ft | 79 kts | 269° |
| 2026-05-05 19:17 | 48.13863 | 14.33512 | 2489 ft | 73 kts | 264° |
| 2026-05-05 19:18 | 48.13791 | 14.32691 | 2529 ft | 89 kts | 261° |
| 2026-05-05 19:18 | 48.13645 | 14.31697 | 2368 ft | 109 kts | 256° |
| 2026-05-05 19:18 | 48.13449 | 14.30510 | 2185 ft | 122 kts | 262° |
| 2026-05-05 19:18 | 48.13029 | 14.29467 | 2155 ft | 124 kts | 210° |
| 2026-05-05 19:19 | 48.12151 | 14.29401 | 2004 ft | 131 kts | 173° |
| 2026-05-05 19:19 | 48.11332 | 14.29624 | 1937 ft | 111 kts | 172° |
| 2026-05-05 19:19 | 48.10688 | 14.30194 | 1774 ft | 114 kts | 134° |
| 2026-05-05 19:19 | 48.10420 | 14.31288 | 1656 ft | 114 kts | 84° |
| 2026-05-05 19:20 | 48.10526 | 14.32466 | 1671 ft | 115 kts | 82° |
| 2026-05-05 19:20 | 48.10656 | 14.33655 | 1797 ft | 120 kts | 79° |
| 2026-05-05 19:20 | 48.10867 | 14.34904 | 1901 ft | 126 kts | 75° |
| 2026-05-05 19:20 | 48.11103 | 14.36144 | 1988 ft | 130 kts | 77° |
| 2026-05-05 19:21 | 48.11373 | 14.37422 | 1994 ft | 119 kts | 59° |
| 2026-05-05 19:21 | 48.12006 | 14.37869 | 1900 ft | 97 kts | 358° |
| 2026-05-05 19:21 | 48.12655 | 14.37797 | 1778 ft | 90 kts | 342° |
| 2026-05-05 19:21 | 48.13247 | 14.37635 | 1695 ft | 86 kts | 339° |
| 2026-05-05 19:22 | 48.13784 | 14.37287 | 1620 ft | 83 kts | 317° |
| 2026-05-05 19:22 | 48.13907 | 14.36554 | 1504 ft | 73 kts | 263° |
| 2026-05-05 19:22 | 48.13948 | 14.35851 | 1442 ft | 71 kts | 290° |
| 2026-05-05 19:22 | 48.13993 | 14.35140 | 1429 ft | 70 kts | 271° |
| 2026-05-05 19:23 | 48.13974 | 14.34368 | 1345 ft | 80 kts | 265° |
| 2026-05-05 19:23 | 48.13900 | 14.33523 | 1218 ft | 81 kts | 263° |
| 2026-05-05 19:23 | 48.13827 | 14.32747 | 1486 ft | 71 kts | 264° |
| 2026-05-05 19:23 | 48.13773 | 14.31997 | 1676 ft | 74 kts | 261° |
| 2026-05-05 19:24 | 48.13740 | 14.31188 | 1817 ft | 83 kts | 268° |
| 2026-05-05 19:24 | 48.13657 | 14.30335 | 1950 ft | 85 kts | 232° |
| 2026-05-05 19:24 | 48.13061 | 14.29969 | 1917 ft | 108 kts | 190° |
| 2026-05-05 19:24 | 48.12248 | 14.29981 | 1891 ft | 125 kts | 170° |
| 2026-05-05 19:25 | 48.11505 | 14.30693 | 1897 ft | 133 kts | 124° |
| 2026-05-05 19:25 | 48.11341 | 14.32022 | 1890 ft | 138 kts | 85° |
| 2026-05-05 19:25 | 48.11418 | 14.33471 | 1844 ft | 141 kts | 88° |
| 2026-05-05 19:25 | 48.11420 | 14.34941 | 1750 ft | 144 kts | 85° |
| 2026-05-05 19:26 | 48.11569 | 14.36413 | 1654 ft | 134 kts | 77° |
| 2026-05-05 19:26 | 48.11882 | 14.37528 | 1609 ft | 102 kts | 41° |
| 2026-05-05 19:26 | 48.12516 | 14.37761 | 1539 ft | 89 kts | 353° |
| 2026-05-05 19:26 | 48.13094 | 14.37628 | 1524 ft | 81 kts | 343° |
| 2026-05-05 19:27 | 48.13587 | 14.37409 | 1588 ft | 70 kts | 335° |
| 2026-05-05 19:27 | 48.13966 | 14.36958 | 1602 ft | 73 kts | 304° |
| 2026-05-05 19:27 | 48.14124 | 14.36216 | 1565 ft | 81 kts | 274° |
| 2026-05-05 19:27 | 48.14113 | 14.35379 | 1450 ft | 80 kts | 263° |
| 2026-05-05 19:28 | 48.14024 | 14.34551 | 1303 ft | 80 kts | 258° |
| 2026-05-05 19:28 | 48.13927 | 14.33734 | 1179 ft | 76 kts | 258° |
| 2026-05-05 19:28 | 48.13852 | 14.32993 | 1256 ft | 77 kts | 261° |
| 2026-05-05 19:28 | 48.13804 | 14.32214 | 1483 ft | 74 kts | 262° |
| 2026-05-05 19:29 | 48.13756 | 14.31445 | 1696 ft | 74 kts | 263° |
| 2026-05-05 19:29 | 48.13655 | 14.30699 | 1862 ft | 81 kts | 236° |
| 2026-05-05 19:29 | 48.13104 | 14.30400 | 1983 ft | 97 kts | 179° |
| 2026-05-05 19:29 | 48.12380 | 14.30526 | 2073 ft | 113 kts | 172° |
| 2026-05-05 19:30 | 48.11556 | 14.30793 | 2085 ft | 127 kts | 167° |
| 2026-05-05 19:30 | 48.10879 | 14.31629 | 2107 ft | 134 kts | 110° |
| 2026-05-05 19:30 | 48.10900 | 14.33054 | 2008 ft | 142 kts | 79° |
| 2026-05-05 19:30 | 48.11079 | 14.34455 | 1964 ft | 132 kts | 81° |
| 2026-05-05 19:31 | 48.11190 | 14.35800 | 1928 ft | 126 kts | 84° |
| 2026-05-05 19:31 | 48.11408 | 14.37052 | 1878 ft | 125 kts | 67° |
| 2026-05-05 19:31 | 48.11917 | 14.38059 | 1831 ft | 122 kts | 37° |
| 2026-05-05 19:31 | 48.12684 | 14.38491 | 1787 ft | 119 kts | 359° |
| 2026-05-05 19:32 | 48.13493 | 14.38370 | 1722 ft | 119 kts | 351° |
| 2026-05-05 19:32 | 48.14171 | 14.38096 | 1741 ft | 84 kts | 325° |
| 2026-05-05 19:32 | 48.14336 | 14.37281 | 1694 ft | 91 kts | 261° |
| 2026-05-05 19:32 | 48.14224 | 14.36352 | 1579 ft | 87 kts | 259° |
| 2026-05-05 19:33 | 48.14136 | 14.35565 | 1460 ft | 72 kts | 259° |
| 2026-05-05 19:33 | 48.14052 | 14.34798 | 1383 ft | 78 kts | 258° |
| 2026-05-05 19:33 | 48.13958 | 14.33998 | 1206 ft | 75 kts | 259° |
| 2026-05-05 19:33 | 48.13877 | 14.33285 | 1201 ft | 74 kts | 259° |
| 2026-05-05 19:34 | 48.13797 | 14.32539 | 1430 ft | 73 kts | 257° |
| 2026-05-05 19:34 | 48.13740 | 14.31790 | 1641 ft | 73 kts | 262° |
| 2026-05-05 19:34 | 48.13695 | 14.31055 | 1857 ft | 71 kts | 264° |
| 2026-05-05 19:35 | 48.12797 | 14.30380 | 2026 ft | 95 kts | 169° |
| 2026-05-05 19:35 | 48.12172 | 14.30733 | 2076 ft | 95 kts | 155° |
| 2026-05-05 19:35 | 48.11580 | 14.31149 | 2075 ft | 94 kts | 156° |
| 2026-05-05 19:35 | 48.11071 | 14.31796 | 2075 ft | 99 kts | 115° |
| 2026-05-05 19:36 | 48.11115 | 14.32862 | 2019 ft | 109 kts | 76° |
| 2026-05-05 19:36 | 48.11319 | 14.34009 | 1945 ft | 115 kts | 74° |
| 2026-05-05 19:36 | 48.11526 | 14.35195 | 1909 ft | 116 kts | 77° |
| 2026-05-05 19:36 | 48.11679 | 14.36385 | 1836 ft | 121 kts | 80° |
| 2026-05-05 19:37 | 48.11811 | 14.37653 | 1741 ft | 124 kts | 81° |
| 2026-05-05 19:37 | 48.12269 | 14.38510 | 1838 ft | 107 kts | 6° |
| 2026-05-05 19:37 | 48.13002 | 14.38377 | 1721 ft | 101 kts | 345° |
| 2026-05-05 19:37 | 48.13631 | 14.38049 | 1696 ft | 89 kts | 327° |
| 2026-05-05 19:38 | 48.14071 | 14.37453 | 1733 ft | 86 kts | 304° |
| 2026-05-05 19:38 | 48.14218 | 14.36583 | 1620 ft | 91 kts | 270° |
| 2026-05-05 19:38 | 48.14153 | 14.35775 | 1462 ft | 70 kts | 263° |
| 2026-05-05 19:38 | 48.14074 | 14.35060 | 1370 ft | 69 kts | 262° |
| 2026-05-05 19:39 | 48.13989 | 14.34291 | 1260 ft | 82 kts | 259° |
| 2026-05-05 19:39 | 48.13890 | 14.33437 | 1230 ft | 78 kts | 260° |
| 2026-05-05 19:39 | 48.13826 | 14.32658 | 1479 ft | 75 kts | 265° |
| 2026-05-05 19:39 | 48.13793 | 14.31882 | 1694 ft | 75 kts | 264° |
| 2026-05-05 19:40 | 48.13740 | 14.31110 | 1914 ft | 73 kts | 261° |
| 2026-05-05 19:40 | 48.13643 | 14.30335 | 2084 ft | 78 kts | 257° |
| 2026-05-05 19:40 | 48.13353 | 14.29567 | 2115 ft | 96 kts | 208° |
| 2026-05-05 19:40 | 48.12665 | 14.29587 | 2146 ft | 104 kts | 173° |
| 2026-05-05 19:41 | 48.11936 | 14.29876 | 2089 ft | 112 kts | 161° |
| 2026-05-05 19:41 | 48.11206 | 14.30311 | 2041 ft | 109 kts | 159° |
| 2026-05-05 19:41 | 48.10687 | 14.30992 | 1975 ft | 97 kts | 108° |
| 2026-05-05 19:41 | 48.10699 | 14.32014 | 1906 ft | 100 kts | 81° |
| 2026-05-05 19:42 | 48.10808 | 14.33028 | 1908 ft | 99 kts | 80° |
| 2026-05-05 19:42 | 48.10940 | 14.34013 | 1927 ft | 95 kts | 79° |
| 2026-05-05 19:42 | 48.11061 | 14.34971 | 1938 ft | 94 kts | 78° |
| 2026-05-05 19:42 | 48.11184 | 14.35925 | 1941 ft | 93 kts | 77° |
| 2026-05-05 19:43 | 48.11430 | 14.36819 | 1945 ft | 94 kts | 56° |
| 2026-05-05 19:43 | 48.11849 | 14.37559 | 1947 ft | 93 kts | 30° |
| 2026-05-05 19:43 | 48.12461 | 14.37712 | 1973 ft | 88 kts | 356° |
| 2026-05-05 19:43 | 48.13076 | 14.37613 | 1955 ft | 88 kts | 347° |
| 2026-05-05 19:44 | 48.13646 | 14.37323 | 1879 ft | 85 kts | 327° |
| 2026-05-05 19:44 | 48.14004 | 14.36664 | 1737 ft | 79 kts | 295° |
| 2026-05-05 19:44 | 48.14131 | 14.35905 | 1550 ft | 71 kts | 272° |
| 2026-05-05 19:44 | 48.14091 | 14.35180 | 1416 ft | 69 kts | 264° |
| 2026-05-05 19:45 | 48.14005 | 14.34478 | 1295 ft | 72 kts | 263° |
| 2026-05-05 19:45 | 48.13926 | 14.33722 | 1176 ft | 68 kts | 257° |
| 2026-05-05 19:45 | 48.13851 | 14.33080 | 1332 ft | 60 kts | 258° |
| 2026-05-05 19:45 | 48.13792 | 14.32389 | 1473 ft | 78 kts | 270° |
| 2026-05-05 19:46 | 48.13692 | 14.31583 | 1638 ft | 83 kts | 257° |
| 2026-05-05 19:46 | 48.13413 | 14.30815 | 1772 ft | 89 kts | 223° |
| 2026-05-05 19:46 | 48.12773 | 14.30663 | 1889 ft | 103 kts | 176° |
| 2026-05-05 19:46 | 48.12065 | 14.30856 | 2022 ft | 107 kts | 167° |
| 2026-05-05 19:47 | 48.11380 | 14.31204 | 2085 ft | 101 kts | 159° |
| 2026-05-05 19:47 | 48.10756 | 14.31772 | 2020 ft | 105 kts | 131° |
| 2026-05-05 19:47 | 48.10659 | 14.32815 | 2013 ft | 109 kts | 79° |
| 2026-05-05 19:47 | 48.10832 | 14.33967 | 1936 ft | 116 kts | 73° |
| 2026-05-05 19:48 | 48.11029 | 14.35126 | 1949 ft | 114 kts | 78° |
| 2026-05-05 19:48 | 48.11192 | 14.36264 | 1972 ft | 111 kts | 76° |
| 2026-05-05 19:48 | 48.11380 | 14.37380 | 1948 ft | 112 kts | 74° |
| 2026-05-05 19:48 | 48.11683 | 14.38458 | 1909 ft | 112 kts | 38° |
| 2026-05-05 19:49 | 48.12429 | 14.38611 | 1864 ft | 110 kts | 352° |
| 2026-05-05 19:49 | 48.12911 | 14.38466 | 1881 ft | 102 kts | 341° |
| 2026-05-05 19:49 | 48.13763 | 14.38049 | 1793 ft | 90 kts | 325° |
| 2026-05-05 19:49 | 48.14075 | 14.37344 | 1720 ft | 79 kts | 286° |
| 2026-05-05 19:50 | 48.14170 | 14.36797 | 1688 ft | 83 kts | 282° |
| 2026-05-05 19:50 | 48.14140 | 14.35676 | 1422 ft | 76 kts | 263° |
| 2026-05-05 19:50 | 48.14092 | 14.35217 | 1361 ft | 61 kts | 266° |
| 2026-05-05 19:50 | 48.13994 | 14.34357 | 1239 ft | 65 kts | 263° |
| 2026-05-05 19:51 | 48.13913 | 14.33616 | 1168 ft | 72 kts | 259° |
| 2026-05-05 19:51 | 48.13844 | 14.33206 | 1362 ft | 52 kts | 252° |
| 2026-05-05 19:51 | 48.13754 | 14.32628 | 1444 ft | 66 kts | 259° |
| 2026-05-05 19:51 | 48.13635 | 14.31956 | 1672 ft | 67 kts | 259° |
| 2026-05-05 19:52 | 48.13587 | 14.31218 | 1706 ft | 84 kts | 261° |
| 2026-05-05 19:52 | 48.13309 | 14.30408 | 1852 ft | 96 kts | 210° |
| 2026-05-05 19:52 | 48.12614 | 14.30391 | 1966 ft | 109 kts | 167° |
| 2026-05-05 19:52 | 48.11906 | 14.30904 | 2064 ft | 119 kts | 150° |
| 2026-05-05 19:53 | 48.11175 | 14.31645 | 2014 ft | 134 kts | 139° |
| 2026-05-05 19:53 | 48.10739 | 14.32890 | 1918 ft | 145 kts | 94° |
| 2026-05-05 19:53 | 48.10899 | 14.34357 | 1915 ft | 141 kts | 76° |
| 2026-05-05 19:53 | 48.11145 | 14.35730 | 1980 ft | 134 kts | 72° |
| 2026-05-05 19:54 | 48.11446 | 14.37031 | 2020 ft | 132 kts | 68° |
| 2026-05-05 19:54 | 48.11965 | 14.38006 | 1966 ft | 109 kts | 24° |
| 2026-05-05 19:54 | 48.12671 | 14.38105 | 1807 ft | 99 kts | 351° |
| 2026-05-05 19:54 | 48.13314 | 14.37920 | 1749 ft | 88 kts | 336° |
| 2026-05-05 19:55 | 48.13791 | 14.37458 | 1717 ft | 75 kts | 308° |
| 2026-05-05 19:55 | 48.14087 | 14.36839 | 1723 ft | 69 kts | 294° |
| 2026-05-05 19:55 | 48.14166 | 14.36120 | 1578 ft | 74 kts | 268° |
| 2026-05-05 19:55 | 48.14099 | 14.35345 | 1463 ft | 73 kts | 263° |
| 2026-05-05 19:56 | 48.14019 | 14.34609 | 1288 ft | 71 kts | 263° |
| 2026-05-05 19:56 | 48.13948 | 14.33936 | 1186 ft | 56 kts | 266° |
| 2026-05-05 19:56 | 48.13905 | 14.33531 | 1180 ft | 27 kts | 256° |
| 2026-05-05 19:56 | 48.13888 | 14.33379 | 1181 ft | 5 kts | 255° |
| 2026-05-05 19:57 | 48.13900 | 14.33344 | 1180 ft | 6 kts | 359° |
| 2026-05-05 19:57 | 48.13924 | 14.33337 | 1181 ft | 2 kts | 349° |
| 2026-05-05 19:57 | 48.13939 | 14.33317 | 1183 ft | 5 kts | 262° |
| 2026-05-05 19:57 | 48.13936 | 14.33293 | 1183 ft | 0 kts | 175° |